sensor_id;sensor_type;location;lat;lon;timestamp;pressure;altitude;pressure_sealevel;temperature;humidity
26657;BME280;14279;50.010;8.260;2023-03-18T00:04:33;99964.84;;;12.50;64.57
26657;BME280;14279;50.010;8.260;2023-03-18T00:14:19;99981.75;;;11.99;69.65
26657;BME280;14279;50.010;8.260;2023-03-18T00:17:07;99987.00;;;11.97;71.24
26657;BME280;14279;50.010;8.260;2023-03-18T00:19:45;99988.94;;;11.94;73.72
26657;BME280;14279;50.010;8.260;2023-03-18T00:22:26;99972.59;;;11.76;75.11
26657;BME280;14279;50.010;8.260;2023-03-18T00:24:52;99971.38;;;11.51;76.78
26657;BME280;14279;50.010;8.260;2023-03-18T00:27:21;99987.03;;;11.35;77.69
26657;BME280;14279;50.010;8.260;2023-03-18T00:29:49;100003.59;;;11.34;78.72
26657;BME280;14279;50.010;8.260;2023-03-18T00:32:15;99999.22;;;11.34;79.31
26657;BME280;14279;50.010;8.260;2023-03-18T00:34:41;99999.50;;;11.30;80.97
26657;BME280;14279;50.010;8.260;2023-03-18T00:37:06;100002.09;;;11.30;81.72
26657;BME280;14279;50.010;8.260;2023-03-18T00:39:32;99996.03;;;11.29;83.29
26657;BME280;14279;50.010;8.260;2023-03-18T00:42:24;100001.56;;;11.39;82.25
26657;BME280;14279;50.010;8.260;2023-03-18T00:48:08;100004.25;;;11.05;82.48
26657;BME280;14279;50.010;8.260;2023-03-18T00:50:38;99999.22;;;11.02;83.35
26657;BME280;14279;50.010;8.260;2023-03-18T00:53:07;99998.88;;;11.08;85.00
26657;BME280;14279;50.010;8.260;2023-03-18T00:55:32;99996.19;;;11.10;85.20
26657;BME280;14279;50.010;8.260;2023-03-18T01:18:45;100009.03;;;10.97;86.06
26657;BME280;14279;50.010;8.260;2023-03-18T01:21:41;99999.72;;;10.93;86.49
26657;BME280;14279;50.010;8.260;2023-03-18T01:28:45;99996.19;;;10.94;86.69
26657;BME280;14279;50.010;8.260;2023-03-18T01:31:12;100004.75;;;10.96;86.62
26657;BME280;14279;50.010;8.260;2023-03-18T01:34:17;100000.88;;;10.87;86.46
26657;BME280;14279;50.010;8.260;2023-03-18T01:37:17;100005.84;;;10.92;88.25
26657;BME280;14279;50.010;8.260;2023-03-18T01:39:48;100003.66;;;11.00;87.97
26657;BME280;14279;50.010;8.260;2023-03-18T01:42:21;99994.00;;;11.02;88.16
26657;BME280;14279;50.010;8.260;2023-03-18T01:47:42;99997.53;;;11.01;87.91
26657;BME280;14279;50.010;8.260;2023-03-18T01:50:09;99982.75;;;11.02;88.52
26657;BME280;14279;50.010;8.260;2023-03-18T01:52:35;99987.63;;;10.92;88.60
26657;BME280;14279;50.010;8.260;2023-03-18T01:55:06;99980.91;;;10.88;89.83
26657;BME280;14279;50.010;8.260;2023-03-18T01:57:33;99984.56;;;10.83;90.80
26657;BME280;14279;50.010;8.260;2023-03-18T01:59:59;99987.34;;;10.80;90.42
26657;BME280;14279;50.010;8.260;2023-03-18T02:02:25;99990.56;;;10.86;89.84
26657;BME280;14279;50.010;8.260;2023-03-18T02:04:53;99989.88;;;10.82;88.99
26657;BME280;14279;50.010;8.260;2023-03-18T02:07:22;99985.50;;;10.82;89.60
26657;BME280;14279;50.010;8.260;2023-03-18T02:09:49;99991.03;;;10.76;89.46
26657;BME280;14279;50.010;8.260;2023-03-18T02:12:20;99994.56;;;10.75;89.55
26657;BME280;14279;50.010;8.260;2023-03-18T02:14:46;100003.06;;;10.79;90.18
26657;BME280;14279;50.010;8.260;2023-03-18T02:17:19;100001.13;;;10.82;90.42
26657;BME280;14279;50.010;8.260;2023-03-18T02:22:54;99986.94;;;10.88;91.16
26657;BME280;14279;50.010;8.260;2023-03-18T02:25:27;99995.66;;;10.87;91.03
26657;BME280;14279;50.010;8.260;2023-03-18T02:28:17;99993.59;;;10.94;91.07
26657;BME280;14279;50.010;8.260;2023-03-18T02:30:50;99985.53;;;10.98;90.48
26657;BME280;14279;50.010;8.260;2023-03-18T02:33:18;99988.38;;;10.94;90.61
26657;BME280;14279;50.010;8.260;2023-03-18T02:35:46;99993.41;;;10.97;90.72
26657;BME280;14279;50.010;8.260;2023-03-18T02:38:14;99992.56;;;10.96;91.12
26657;BME280;14279;50.010;8.260;2023-03-18T02:40:41;99986.69;;;10.93;91.00
26657;BME280;14279;50.010;8.260;2023-03-18T02:43:26;99993.81;;;10.89;90.48
26657;BME280;14279;50.010;8.260;2023-03-18T02:46:00;99998.53;;;10.82;90.39
26657;BME280;14279;50.010;8.260;2023-03-18T02:48:34;99998.19;;;10.89;90.91
26657;BME280;14279;50.010;8.260;2023-03-18T02:51:00;99991.72;;;10.96;90.00
26657;BME280;14279;50.010;8.260;2023-03-18T02:53:26;99998.53;;;10.98;89.61
26657;BME280;14279;50.010;8.260;2023-03-18T02:55:51;100021.47;;;10.92;89.92
26657;BME280;14279;50.010;8.260;2023-03-18T02:58:17;100027.50;;;10.92;90.22
26657;BME280;14279;50.010;8.260;2023-03-18T03:00:42;100022.06;;;10.97;89.68
26657;BME280;14279;50.010;8.260;2023-03-18T03:03:07;100030.97;;;11.09;89.07
26657;BME280;14279;50.010;8.260;2023-03-18T03:05:33;100032.16;;;11.03;89.36
26657;BME280;14279;50.010;8.260;2023-03-18T03:07:59;100038.78;;;11.09;88.95
26657;BME280;14279;50.010;8.260;2023-03-18T03:10:24;100051.47;;;10.99;90.07
26657;BME280;14279;50.010;8.260;2023-03-18T03:12:50;100037.34;;;11.03;90.37
26657;BME280;14279;50.010;8.260;2023-03-18T03:15:16;100035.34;;;11.08;90.06
26657;BME280;14279;50.010;8.260;2023-03-18T03:17:41;100031.66;;;11.12;90.04
26657;BME280;14279;50.010;8.260;2023-03-18T03:20:08;100034.75;;;11.03;90.19
26657;BME280;14279;50.010;8.260;2023-03-18T03:22:33;100043.16;;;11.08;90.13
26657;BME280;14279;50.010;8.260;2023-03-18T03:25:00;100031.06;;;11.07;90.42
26657;BME280;14279;50.010;8.260;2023-03-18T03:27:26;100039.31;;;11.16;89.64
26657;BME280;14279;50.010;8.260;2023-03-18T03:29:51;100038.97;;;11.06;90.07
26657;BME280;14279;50.010;8.260;2023-03-18T03:32:18;100037.72;;;11.13;89.39
26657;BME280;14279;50.010;8.260;2023-03-18T03:34:43;100033.00;;;11.04;88.78
26657;BME280;14279;50.010;8.260;2023-03-18T03:37:08;100033.38;;;10.96;89.40
26657;BME280;14279;50.010;8.260;2023-03-18T03:39:34;100030.69;;;10.81;89.50
26657;BME280;14279;50.010;8.260;2023-03-18T03:41:59;100028.34;;;10.77;89.96
26657;BME280;14279;50.010;8.260;2023-03-18T03:44:24;100031.44;;;10.83;88.96
26657;BME280;14279;50.010;8.260;2023-03-18T03:46:50;100030.00;;;10.78;89.11
26657;BME280;14279;50.010;8.260;2023-03-18T03:49:15;100028.25;;;10.78;89.41
26657;BME280;14279;50.010;8.260;2023-03-18T03:51:41;100033.09;;;10.68;88.91
26657;BME280;14279;50.010;8.260;2023-03-18T03:54:06;100029.66;;;10.68;89.32
26657;BME280;14279;50.010;8.260;2023-03-18T03:56:34;100027.53;;;10.59;90.19
26657;BME280;14279;50.010;8.260;2023-03-18T03:59:00;100038.84;;;10.58;89.84
26657;BME280;14279;50.010;8.260;2023-03-18T04:01:25;100039.91;;;10.71;89.42
26657;BME280;14279;50.010;8.260;2023-03-18T04:03:51;100048.84;;;10.83;88.78
26657;BME280;14279;50.010;8.260;2023-03-18T04:06:16;100032.97;;;10.88;87.80
26657;BME280;14279;50.010;8.260;2023-03-18T04:08:41;100031.81;;;10.93;87.78
26657;BME280;14279;50.010;8.260;2023-03-18T04:11:07;100036.94;;;10.95;88.22
26657;BME280;14279;50.010;8.260;2023-03-18T04:13:32;100045.09;;;11.05;87.84
26657;BME280;14279;50.010;8.260;2023-03-18T04:15:58;100037.09;;;11.08;87.86
26657;BME280;14279;50.010;8.260;2023-03-18T04:18:24;100045.28;;;11.02;87.72
26657;BME280;14279;50.010;8.260;2023-03-18T04:20:50;100039.97;;;11.03;87.42
26657;BME280;14279;50.010;8.260;2023-03-18T04:23:15;100042.81;;;10.98;87.46
26657;BME280;14279;50.010;8.260;2023-03-18T04:25:40;100034.56;;;10.90;87.38
26657;BME280;14279;50.010;8.260;2023-03-18T04:28:06;100041.88;;;10.83;87.13
26657;BME280;14279;50.010;8.260;2023-03-18T04:30:35;100039.41;;;10.80;87.94
26657;BME280;14279;50.010;8.260;2023-03-18T04:33:00;100047.44;;;10.93;86.73
26657;BME280;14279;50.010;8.260;2023-03-18T04:35:27;100046.34;;;10.97;86.73
26657;BME280;14279;50.010;8.260;2023-03-18T04:37:53;100048.69;;;11.02;86.91
26657;BME280;14279;50.010;8.260;2023-03-18T04:40:19;100050.38;;;11.03;86.47
26657;BME280;14279;50.010;8.260;2023-03-18T04:42:44;100055.34;;;11.08;86.39
26657;BME280;14279;50.010;8.260;2023-03-18T04:45:12;100052.19;;;11.19;85.17
26657;BME280;14279;50.010;8.260;2023-03-18T04:47:38;100054.59;;;11.06;86.25
26657;BME280;14279;50.010;8.260;2023-03-18T04:50:03;100054.00;;;11.01;86.49
26657;BME280;14279;50.010;8.260;2023-03-18T04:52:29;100059.72;;;11.07;86.16
26657;BME280;14279;50.010;8.260;2023-03-18T04:54:54;100057.59;;;10.82;87.60
26657;BME280;14279;50.010;8.260;2023-03-18T04:57:20;100061.78;;;10.85;88.01
26657;BME280;14279;50.010;8.260;2023-03-18T04:59:46;100053.03;;;10.86;87.64
26657;BME280;14279;50.010;8.260;2023-03-18T05:02:11;100056.47;;;10.86;88.19
26657;BME280;14279;50.010;8.260;2023-03-18T05:04:37;100060.59;;;10.90;86.90
26657;BME280;14279;50.010;8.260;2023-03-18T05:07:02;100062.38;;;10.90;86.83
26657;BME280;14279;50.010;8.260;2023-03-18T05:09:28;100055.50;;;10.89;87.34
26657;BME280;14279;50.010;8.260;2023-03-18T05:11:53;100061.88;;;10.83;86.86
26657;BME280;14279;50.010;8.260;2023-03-18T05:14:18;100062.03;;;10.96;86.13
26657;BME280;14279;50.010;8.260;2023-03-18T05:16:44;100061.41;;;11.08;85.10
26657;BME280;14279;50.010;8.260;2023-03-18T05:19:10;100063.66;;;10.98;85.77
26657;BME280;14279;50.010;8.260;2023-03-18T05:21:35;100063.41;;;11.03;85.61
26657;BME280;14279;50.010;8.260;2023-03-18T05:24:00;100060.97;;;11.00;85.58
26657;BME280;14279;50.010;8.260;2023-03-18T05:26:26;100055.44;;;11.06;85.37
26657;BME280;14279;50.010;8.260;2023-03-18T05:28:51;100057.03;;;11.09;85.64
26657;BME280;14279;50.010;8.260;2023-03-18T05:31:17;100056.97;;;11.10;85.57
26657;BME280;14279;50.010;8.260;2023-03-18T05:33:43;100055.72;;;11.18;84.82
26657;BME280;14279;50.010;8.260;2023-03-18T05:36:08;100057.88;;;11.09;85.41
26657;BME280;14279;50.010;8.260;2023-03-18T05:38:33;100051.75;;;11.10;85.64
26657;BME280;14279;50.010;8.260;2023-03-18T05:40:59;100066.00;;;11.03;86.21
26657;BME280;14279;50.010;8.260;2023-03-18T05:43:24;100070.75;;;11.12;85.82
26657;BME280;14279;50.010;8.260;2023-03-18T05:45:50;100067.53;;;11.07;85.62
26657;BME280;14279;50.010;8.260;2023-03-18T05:48:15;100073.81;;;11.03;85.34
26657;BME280;14279;50.010;8.260;2023-03-18T05:50:42;100069.28;;;10.91;85.66
26657;BME280;14279;50.010;8.260;2023-03-18T05:53:08;100066.81;;;10.88;86.19
26657;BME280;14279;50.010;8.260;2023-03-18T05:55:35;100076.16;;;10.92;85.73
26657;BME280;14279;50.010;8.260;2023-03-18T05:58:01;100067.28;;;10.78;86.83
26657;BME280;14279;50.010;8.260;2023-03-18T06:00:27;100074.03;;;10.82;86.49
26657;BME280;14279;50.010;8.260;2023-03-18T06:02:54;100072.44;;;10.80;86.77
26657;BME280;14279;50.010;8.260;2023-03-18T06:05:21;100072.06;;;10.70;86.65
26657;BME280;14279;50.010;8.260;2023-03-18T06:07:47;100066.69;;;10.73;86.61
26657;BME280;14279;50.010;8.260;2023-03-18T06:10:13;100069.38;;;10.72;86.88
26657;BME280;14279;50.010;8.260;2023-03-18T06:12:38;100076.94;;;10.76;86.85
26657;BME280;14279;50.010;8.260;2023-03-18T06:15:06;100079.25;;;10.82;86.08
26657;BME280;14279;50.010;8.260;2023-03-18T06:17:32;100078.22;;;10.85;85.65
26657;BME280;14279;50.010;8.260;2023-03-18T06:19:58;100076.53;;;10.84;85.60
26657;BME280;14279;50.010;8.260;2023-03-18T06:22:23;100081.94;;;10.81;85.97
26657;BME280;14279;50.010;8.260;2023-03-18T06:24:49;100087.34;;;10.94;85.39
26657;BME280;14279;50.010;8.260;2023-03-18T06:27:14;100085.47;;;10.96;84.74
26657;BME280;14279;50.010;8.260;2023-03-18T06:29:39;100081.28;;;10.93;84.84
26657;BME280;14279;50.010;8.260;2023-03-18T06:32:06;100089.75;;;10.97;84.74
26657;BME280;14279;50.010;8.260;2023-03-18T06:34:32;100092.22;;;11.00;84.52
26657;BME280;14279;50.010;8.260;2023-03-18T06:36:58;100084.41;;;11.00;84.18
26657;BME280;14279;50.010;8.260;2023-03-18T06:39:24;100090.22;;;11.05;83.90
26657;BME280;14279;50.010;8.260;2023-03-18T06:41:49;100093.59;;;11.07;83.68
26657;BME280;14279;50.010;8.260;2023-03-18T06:44:16;100095.88;;;11.13;83.04
26657;BME280;14279;50.010;8.260;2023-03-18T06:46:41;100098.91;;;11.22;82.20
26657;BME280;14279;50.010;8.260;2023-03-18T06:49:07;100095.91;;;11.30;82.02
26657;BME280;14279;50.010;8.260;2023-03-18T06:51:32;100104.22;;;11.36;81.69
26657;BME280;14279;50.010;8.260;2023-03-18T06:53:58;100098.66;;;11.26;82.27
26657;BME280;14279;50.010;8.260;2023-03-18T06:56:24;100102.97;;;11.27;81.62
26657;BME280;14279;50.010;8.260;2023-03-18T06:58:49;100101.53;;;11.38;81.44
26657;BME280;14279;50.010;8.260;2023-03-18T07:01:15;100103.38;;;11.36;81.80
26657;BME280;14279;50.010;8.260;2023-03-18T07:03:41;100106.50;;;11.42;81.44
26657;BME280;14279;50.010;8.260;2023-03-18T07:06:07;100112.22;;;11.49;81.67
26657;BME280;14279;50.010;8.260;2023-03-18T07:08:34;100115.66;;;11.50;80.91
26657;BME280;14279;50.010;8.260;2023-03-18T07:10:59;100111.81;;;11.57;80.82
26657;BME280;14279;50.010;8.260;2023-03-18T07:13:25;100113.22;;;11.63;80.49
26657;BME280;14279;50.010;8.260;2023-03-18T07:15:50;100119.03;;;11.68;80.29
26657;BME280;14279;50.010;8.260;2023-03-18T07:18:16;100106.09;;;11.66;80.49
26657;BME280;14279;50.010;8.260;2023-03-18T07:20:41;100120.56;;;11.72;80.38
26657;BME280;14279;50.010;8.260;2023-03-18T07:23:06;100122.09;;;11.76;80.41
26657;BME280;14279;50.010;8.260;2023-03-18T07:25:31;100122.47;;;11.84;80.01
26657;BME280;14279;50.010;8.260;2023-03-18T07:27:58;100124.84;;;11.89;79.86
26657;BME280;14279;50.010;8.260;2023-03-18T07:30:25;100123.66;;;11.95;79.40
26657;BME280;14279;50.010;8.260;2023-03-18T07:32:51;100127.56;;;12.03;79.14
26657;BME280;14279;50.010;8.260;2023-03-18T07:35:16;100129.06;;;12.08;79.03
26657;BME280;14279;50.010;8.260;2023-03-18T07:37:41;100123.31;;;12.17;78.40
26657;BME280;14279;50.010;8.260;2023-03-18T07:40:08;100133.59;;;12.20;78.03
26657;BME280;14279;50.010;8.260;2023-03-18T07:42:34;100139.22;;;12.28;77.59
26657;BME280;14279;50.010;8.260;2023-03-18T07:44:59;100141.88;;;12.43;78.39
26657;BME280;14279;50.010;8.260;2023-03-18T07:47:24;100140.28;;;12.40;77.91
26657;BME280;14279;50.010;8.260;2023-03-18T07:49:50;100146.00;;;12.47;77.54
26657;BME280;14279;50.010;8.260;2023-03-18T07:52:18;100140.25;;;12.56;77.02
26657;BME280;14279;50.010;8.260;2023-03-18T07:54:43;100145.66;;;12.68;76.53
26657;BME280;14279;50.010;8.260;2023-03-18T07:57:09;100144.75;;;12.69;76.53
26657;BME280;14279;50.010;8.260;2023-03-18T07:59:35;100142.31;;;12.66;76.09
26657;BME280;14279;50.010;8.260;2023-03-18T08:02:01;100135.63;;;12.76;75.66
26657;BME280;14279;50.010;8.260;2023-03-18T08:04:28;100137.50;;;12.88;74.92
26657;BME280;14279;50.010;8.260;2023-03-18T08:06:53;100128.09;;;13.00;74.05
26657;BME280;14279;50.010;8.260;2023-03-18T08:09:19;100128.75;;;13.04;74.29
26657;BME280;14279;50.010;8.260;2023-03-18T08:11:45;100141.06;;;13.02;74.89
26657;BME280;14279;50.010;8.260;2023-03-18T08:14:10;100135.66;;;13.19;74.68
26657;BME280;14279;50.010;8.260;2023-03-18T08:16:36;100137.81;;;13.13;74.78
26657;BME280;14279;50.010;8.260;2023-03-18T08:19:01;100136.22;;;13.25;74.11
26657;BME280;14279;50.010;8.260;2023-03-18T08:21:26;100139.22;;;13.33;72.96
26657;BME280;14279;50.010;8.260;2023-03-18T08:23:51;100135.38;;;13.53;72.28
26657;BME280;14279;50.010;8.260;2023-03-18T08:26:17;100141.09;;;13.60;72.06
26657;BME280;14279;50.010;8.260;2023-03-18T08:28:42;100143.72;;;13.60;72.07
26657;BME280;14279;50.010;8.260;2023-03-18T08:31:07;100146.84;;;13.79;70.26
26657;BME280;14279;50.010;8.260;2023-03-18T08:33:33;100142.31;;;13.96;69.43
26657;BME280;14279;50.010;8.260;2023-03-18T08:35:59;100137.94;;;14.09;68.20
26657;BME280;14279;50.010;8.260;2023-03-18T08:38:24;100151.16;;;14.08;65.86
26657;BME280;14279;50.010;8.260;2023-03-18T08:40:50;100153.56;;;13.83;65.82
26657;BME280;14279;50.010;8.260;2023-03-18T08:43:16;100156.31;;;13.67;65.90
26657;BME280;14279;50.010;8.260;2023-03-18T08:46:08;100154.84;;;13.91;64.77
26657;BME280;14279;50.010;8.260;2023-03-18T08:49:05;100145.97;;;14.21;62.09
26657;BME280;14279;50.010;8.260;2023-03-18T08:51:31;100144.31;;;14.33;61.45
26657;BME280;14279;50.010;8.260;2023-03-18T08:53:57;100133.84;;;14.33;60.48
26657;BME280;14279;50.010;8.260;2023-03-18T08:56:23;100130.00;;;14.51;60.33
26657;BME280;14279;50.010;8.260;2023-03-18T08:58:51;100131.38;;;14.57;60.97
26657;BME280;14279;50.010;8.260;2023-03-18T09:01:17;100137.13;;;14.77;60.76
26657;BME280;14279;50.010;8.260;2023-03-18T09:03:46;100136.25;;;14.76;62.02
26657;BME280;14279;50.010;8.260;2023-03-18T09:06:11;100139.09;;;14.86;60.64
26657;BME280;14279;50.010;8.260;2023-03-18T09:08:37;100143.41;;;14.87;58.68
26657;BME280;14279;50.010;8.260;2023-03-18T09:11:04;100144.66;;;14.81;58.38
26657;BME280;14279;50.010;8.260;2023-03-18T09:13:31;100143.50;;;15.11;57.01
26657;BME280;14279;50.010;8.260;2023-03-18T09:15:56;100145.72;;;14.79;58.29
26657;BME280;14279;50.010;8.260;2023-03-18T09:18:22;100153.13;;;14.72;57.45
26657;BME280;14279;50.010;8.260;2023-03-18T09:20:48;100150.75;;;14.54;58.59
26657;BME280;14279;50.010;8.260;2023-03-18T09:23:15;100142.56;;;14.73;57.99
26657;BME280;14279;50.010;8.260;2023-03-18T09:25:43;100145.19;;;14.73;58.56
26657;BME280;14279;50.010;8.260;2023-03-18T09:28:09;100142.66;;;15.11;57.55
26657;BME280;14279;50.010;8.260;2023-03-18T09:30:34;100137.94;;;15.29;56.88
26657;BME280;14279;50.010;8.260;2023-03-18T09:33:00;100145.03;;;15.53;56.55
26657;BME280;14279;50.010;8.260;2023-03-18T09:35:26;100134.78;;;15.37;55.20
26657;BME280;14279;50.010;8.260;2023-03-18T09:38:02;100126.56;;;15.41;55.61
26657;BME280;14279;50.010;8.260;2023-03-18T09:40:36;100135.78;;;15.60;55.21
26657;BME280;14279;50.010;8.260;2023-03-18T09:46:47;100138.44;;;15.84;53.72
26657;BME280;14279;50.010;8.260;2023-03-18T09:49:52;100136.88;;;15.82;53.94
26657;BME280;14279;50.010;8.260;2023-03-18T09:52:27;100129.53;;;16.11;52.59
26657;BME280;14279;50.010;8.260;2023-03-18T09:58:20;100130.00;;;15.05;54.93
26657;BME280;14279;50.010;8.260;2023-03-18T10:00:50;100135.66;;;14.98;53.23
26657;BME280;14279;50.010;8.260;2023-03-18T10:03:31;100141.31;;;15.05;53.29
26657;BME280;14279;50.010;8.260;2023-03-18T10:06:14;100133.25;;;15.08;53.58
26657;BME280;14279;50.010;8.260;2023-03-18T10:18:44;100137.66;;;15.71;51.89
26657;BME280;14279;50.010;8.260;2023-03-18T10:21:45;100136.63;;;16.22;50.38
26657;BME280;14279;50.010;8.260;2023-03-18T10:24:18;100136.50;;;15.99;51.99
26657;BME280;14279;50.010;8.260;2023-03-18T10:26:51;100136.03;;;16.18;50.89
26657;BME280;14279;50.010;8.260;2023-03-18T10:35:18;100138.66;;;17.24;47.91
26657;BME280;14279;50.010;8.260;2023-03-18T10:38:22;100128.31;;;16.87;48.84
26657;BME280;14279;50.010;8.260;2023-03-18T10:40:48;100122.16;;;16.52;50.57
26657;BME280;14279;50.010;8.260;2023-03-18T10:43:17;100129.91;;;16.42;50.54
26657;BME280;14279;50.010;8.260;2023-03-18T12:20:50;100083.00;;;19.22;43.23
26657;BME280;14279;50.010;8.260;2023-03-18T12:26:39;100077.53;;;18.83;43.88
26657;BME280;14279;50.010;8.260;2023-03-18T12:29:36;100065.22;;;18.62;43.72
26657;BME280;14279;50.010;8.260;2023-03-18T12:35:25;100063.06;;;18.99;43.27
26657;BME280;14279;50.010;8.260;2023-03-18T12:41:25;100070.09;;;19.39;43.34
26657;BME280;14279;50.010;8.260;2023-03-18T12:53:43;100061.63;;;19.35;42.26
26657;BME280;14279;50.010;8.260;2023-03-18T12:56:25;100055.13;;;19.49;42.60
26657;BME280;14279;50.010;8.260;2023-03-18T12:59:13;100047.97;;;20.01;41.10
26657;BME280;14279;50.010;8.260;2023-03-18T13:05:53;100051.69;;;19.78;40.68
26657;BME280;14279;50.010;8.260;2023-03-18T13:19:07;100057.25;;;18.31;43.24
26657;BME280;14279;50.010;8.260;2023-03-18T13:40:31;100041.13;;;18.98;42.35
26657;BME280;14279;50.010;8.260;2023-03-18T13:43:02;100044.00;;;19.36;42.03
26657;BME280;14279;50.010;8.260;2023-03-18T13:45:36;100047.38;;;19.67;41.38
26657;BME280;14279;50.010;8.260;2023-03-18T13:48:12;100050.72;;;19.70;41.64
26657;BME280;14279;50.010;8.260;2023-03-18T13:50:42;100047.56;;;20.05;40.73
26657;BME280;14279;50.010;8.260;2023-03-18T13:53:21;100043.25;;;20.04;40.51
26657;BME280;14279;50.010;8.260;2023-03-18T13:57:14;100039.22;;;19.10;42.60
26657;BME280;14279;50.010;8.260;2023-03-18T13:59:04;100040.66;;;19.24;42.65
26657;BME280;14279;50.010;8.260;2023-03-18T14:01:47;100033.72;;;19.33;42.34
26657;BME280;14279;50.010;8.260;2023-03-18T14:04:44;100035.31;;;19.85;40.89
26657;BME280;14279;50.010;8.260;2023-03-18T14:07:15;100031.47;;;19.38;41.88
26657;BME280;14279;50.010;8.260;2023-03-18T14:12:38;100026.06;;;18.89;43.39
26657;BME280;14279;50.010;8.260;2023-03-18T14:17:52;100027.00;;;18.26;44.37
26657;BME280;14279;50.010;8.260;2023-03-18T14:20:24;100018.69;;;18.52;43.93
26657;BME280;14279;50.010;8.260;2023-03-18T14:23:31;100022.84;;;18.54;44.00
26657;BME280;14279;50.010;8.260;2023-03-18T14:26:22;100022.59;;;18.88;43.66
26657;BME280;14279;50.010;8.260;2023-03-18T14:29:13;100018.38;;;19.07;43.00
26657;BME280;14279;50.010;8.260;2023-03-18T14:42:03;100021.97;;;18.75;43.13
26657;BME280;14279;50.010;8.260;2023-03-18T14:44:49;100017.72;;;18.84;43.32
26657;BME280;14279;50.010;8.260;2023-03-18T14:47:19;100025.84;;;19.02;42.29
26657;BME280;14279;50.010;8.260;2023-03-18T14:49:55;100019.66;;;19.22;41.95
26657;BME280;14279;50.010;8.260;2023-03-18T14:52:31;100013.38;;;19.04;42.42
26657;BME280;14279;50.010;8.260;2023-03-18T14:55:03;100008.13;;;19.23;42.36
26657;BME280;14279;50.010;8.260;2023-03-18T14:57:31;100002.94;;;19.02;42.74
26657;BME280;14279;50.010;8.260;2023-03-18T14:59:57;100011.56;;;18.73;43.42
26657;BME280;14279;50.010;8.260;2023-03-18T15:02:31;100006.19;;;18.85;42.05
26657;BME280;14279;50.010;8.260;2023-03-18T15:04:59;100009.50;;;19.08;41.41
26657;BME280;14279;50.010;8.260;2023-03-18T15:07:32;100004.09;;;19.19;41.60
26657;BME280;14279;50.010;8.260;2023-03-18T15:10:02;100003.09;;;19.11;41.10
26657;BME280;14279;50.010;8.260;2023-03-18T15:12:28;100004.09;;;19.19;41.07
26657;BME280;14279;50.010;8.260;2023-03-18T15:14:54;99999.25;;;19.34;40.11
26657;BME280;14279;50.010;8.260;2023-03-18T15:17:23;99998.19;;;19.47;39.71
26657;BME280;14279;50.010;8.260;2023-03-18T15:19:48;99996.06;;;19.31;40.25
26657;BME280;14279;50.010;8.260;2023-03-18T15:22:21;99998.56;;;19.32;40.16
26657;BME280;14279;50.010;8.260;2023-03-18T15:25:17;99998.97;;;19.18;39.94
26657;BME280;14279;50.010;8.260;2023-03-18T15:27:42;99982.34;;;19.37;39.21
26657;BME280;14279;50.010;8.260;2023-03-18T15:30:30;99984.28;;;19.55;39.40
26657;BME280;14279;50.010;8.260;2023-03-18T15:33:06;99979.72;;;19.57;39.45
26657;BME280;14279;50.010;8.260;2023-03-18T15:38:33;99985.78;;;18.87;40.17
26657;BME280;14279;50.010;8.260;2023-03-18T15:41:07;99971.75;;;18.76;39.90
26657;BME280;14279;50.010;8.260;2023-03-18T15:43:43;99983.88;;;18.58;40.45
26657;BME280;14279;50.010;8.260;2023-03-18T15:46:26;99986.03;;;18.74;39.79
26657;BME280;14279;50.010;8.260;2023-03-18T15:48:56;99980.19;;;18.70;39.79
26657;BME280;14279;50.010;8.260;2023-03-18T15:51:40;99973.88;;;18.92;39.30
26657;BME280;14279;50.010;8.260;2023-03-18T15:54:17;99971.59;;;19.09;39.05
26657;BME280;14279;50.010;8.260;2023-03-18T15:56:47;99968.72;;;19.22;38.32
26657;BME280;14279;50.010;8.260;2023-03-18T15:59:17;99968.13;;;19.28;38.20
26657;BME280;14279;50.010;8.260;2023-03-18T16:01:43;99966.47;;;19.17;38.47
26657;BME280;14279;50.010;8.260;2023-03-18T16:04:15;99968.94;;;18.99;38.52
26657;BME280;14279;50.010;8.260;2023-03-18T16:06:41;99963.09;;;19.05;38.45
26657;BME280;14279;50.010;8.260;2023-03-18T16:09:25;99967.03;;;19.11;38.31
26657;BME280;14279;50.010;8.260;2023-03-18T16:12:15;99959.13;;;19.21;38.55
26657;BME280;14279;50.010;8.260;2023-03-18T16:14:45;99964.78;;;19.06;39.08
26657;BME280;14279;50.010;8.260;2023-03-18T16:17:13;99964.22;;;19.03;38.78
26657;BME280;14279;50.010;8.260;2023-03-18T16:19:39;99962.03;;;19.08;39.02
26657;BME280;14279;50.010;8.260;2023-03-18T16:22:05;99966.31;;;19.09;39.46
26657;BME280;14279;50.010;8.260;2023-03-18T16:24:31;99963.00;;;19.17;39.36
26657;BME280;14279;50.010;8.260;2023-03-18T16:26:57;99962.56;;;19.12;39.08
26657;BME280;14279;50.010;8.260;2023-03-18T16:29:29;99961.06;;;19.09;39.42
26657;BME280;14279;50.010;8.260;2023-03-18T16:31:56;99964.50;;;19.10;39.20
26657;BME280;14279;50.010;8.260;2023-03-18T16:34:21;99974.78;;;19.03;40.00
26657;BME280;14279;50.010;8.260;2023-03-18T16:36:47;99972.84;;;18.74;40.69
26657;BME280;14279;50.010;8.260;2023-03-18T16:39:20;99971.22;;;18.92;40.57
26657;BME280;14279;50.010;8.260;2023-03-18T16:41:46;99970.25;;;18.93;40.14
26657;BME280;14279;50.010;8.260;2023-03-18T16:44:13;99968.03;;;18.89;40.28
26657;BME280;14279;50.010;8.260;2023-03-18T16:46:40;99964.69;;;18.87;40.39
26657;BME280;14279;50.010;8.260;2023-03-18T16:49:20;99969.00;;;18.88;40.49
26657;BME280;14279;50.010;8.260;2023-03-18T16:51:46;99967.34;;;18.87;40.27
26657;BME280;14279;50.010;8.260;2023-03-18T16:56:45;99969.94;;;18.77;40.55
26657;BME280;14279;50.010;8.260;2023-03-18T16:59:13;99975.97;;;18.58;41.17
26657;BME280;14279;50.010;8.260;2023-03-18T17:01:40;99982.31;;;18.24;41.97
26657;BME280;14279;50.010;8.260;2023-03-18T17:04:29;99978.31;;;18.30;41.63